Time;durP1;ratioP1;P1;durP2;ratioP2;P2;SDS_P1;SDS_P2;PMS_P1;PMS_P2;Temp;Humidity;BMP_temperature;BMP_pressure;BME280_temperature;BME280_humidity;BME280_pressure;Samples;Min_cycle;Max_cycle;Signal;HPM_P1;HPM_P2
2021/11/23 00:01:25;;;;;;;14.00;10.17;;;;;;;;;;770621;179;918863;-65
2021/11/23 00:03:51;;;;;;;14.70;10.00;;;;;;;;;;765509;181;921290;-66
2021/11/23 00:06:17;;;;;;;15.00;9.18;;;;;;;;;;763457;180;919812;-64
2021/11/23 00:08:43;;;;;;;15.83;9.03;;;;;;;;;;761530;180;916014;-65
2021/11/23 00:11:09;;;;;;;13.20;7.87;;;;;;;;;;772521;180;919138;-66
2021/11/23 00:13:34;;;;;;;11.10;7.90;;;;;;;;;;767015;180;945159;-66
2021/11/23 00:16:00;;;;;;;11.07;7.23;;;;;;;;;;768998;180;921908;-65
2021/11/23 00:18:26;;;;;;;10.77;6.97;;;;;;;;;;777015;180;918713;-65
2021/11/23 00:20:52;;;;;;;10.40;5.83;;;;;;;;;;767750;180;917342;-65
2021/11/23 00:23:18;;;;;;;11.80;6.50;;;;;;;;;;766224;180;918990;-64
2021/11/23 00:25:44;;;;;;;8.73;5.70;;;;;;;;;;768936;180;919285;-65
2021/11/23 00:28:10;;;;;;;10.90;5.90;;;;;;;;;;768997;180;920038;-65
2021/11/23 00:30:36;;;;;;;6.47;4.10;;;;;;;;;;765799;180;919039;-65
2021/11/23 00:33:01;;;;;;;7.77;4.80;;;;;;;;;;771155;179;919040;-66
2021/11/23 00:35:27;;;;;;;7.30;4.33;;;;;;;;;;773629;180;919538;-65
2021/11/23 00:37:53;;;;;;;5.97;3.85;;;;;;;;;;765402;181;918769;-65
2021/11/23 00:40:19;;;;;;;4.90;3.80;;;;;;;;;;768950;181;918502;-64
2021/11/23 00:42:45;;;;;;;6.07;3.90;;;;;;;;;;772961;180;918782;-64
2021/11/23 00:45:11;;;;;;;7.23;3.47;;;;;;;;;;769812;180;920249;-66
2021/11/23 00:47:36;;;;;;;5.97;4.07;;;;;;;;;;767796;180;919092;-65
2021/11/23 00:50:02;;;;;;;7.10;4.17;;;;;;;;;;773934;180;919743;-66
2021/11/23 00:52:28;;;;;;;5.00;3.33;;;;;;;;;;768958;180;1333039;-65
2021/11/23 00:54:54;;;;;;;10.03;4.27;;;;;;;;;;767742;180;919321;-66
2021/11/23 00:57:20;;;;;;;14.45;4.62;;;;;;;;;;773164;180;918721;-62
2021/11/23 00:59:46;;;;;;;5.47;3.40;;;;;;;;;;771804;181;918315;-65
2021/11/23 01:02:12;;;;;;;7.70;4.47;;;;;;;;;;759912;182;920100;-64
2021/11/23 01:04:38;;;;;;;4.68;3.08;;;;;;;;;;770504;180;919691;-65
2021/11/23 01:07:04;;;;;;;5.80;4.20;;;;;;;;;;776102;180;918784;-65
2021/11/23 01:09:30;;;;;;;10.83;3.70;;;;;;;;;;767271;180;919213;-64
2021/11/23 01:11:56;;;;;;;5.87;3.50;;;;;;;;;;769613;180;919542;-65
2021/11/23 01:14:21;;;;;;;5.70;3.67;;;;;;;;;;776447;180;919982;-64
2021/11/23 01:16:49;;;;;;;8.07;4.20;;;;;;;;;;770060;180;920067;-65
2021/11/23 01:19:16;;;;;;;5.25;3.90;;;;;;;;;;768128;180;918324;-63
2021/11/23 01:21:41;;;;;;;5.77;4.10;;;;;;;;;;770198;180;919690;-63
2021/11/23 01:24:07;;;;;;;7.33;4.53;;;;;;;;;;765157;183;923087;-64
2021/11/23 01:26:33;;;;;;;6.50;3.77;;;;;;;;;;771331;180;1020997;-63
2021/11/23 01:28:59;;;;;;;7.30;4.68;;;;;;;;;;769766;179;1288952;-64
2021/11/23 01:31:25;;;;;;;11.43;4.50;;;;;;;;;;776592;181;917564;-62
2021/11/23 01:33:51;;;;;;;5.20;3.60;;;;;;;;;;772022;180;918104;-62
2021/11/23 01:36:16;;;;;;;5.67;3.83;;;;;;;;;;767679;180;919838;-64
2021/11/23 01:38:42;;;;;;;6.47;3.60;;;;;;;;;;775917;180;917735;-62
2021/11/23 01:41:08;;;;;;;5.13;3.80;;;;;;;;;;775921;177;918597;-64
2021/11/23 01:43:34;;;;;;;9.85;3.97;;;;;;;;;;768474;180;919230;-63
2021/11/23 01:46:00;;;;;;;5.57;3.50;;;;;;;;;;771760;180;913877;-63
2021/11/23 01:48:26;;;;;;;6.10;3.50;;;;;;;;;;769598;177;914246;-63
2021/11/23 01:50:52;;;;;;;4.70;3.20;;;;;;;;;;768757;180;920951;-65
2021/11/23 01:53:17;;;;;;;7.75;4.20;;;;;;;;;;765470;180;997250;-65
2021/11/23 01:55:43;;;;;;;7.53;3.80;;;;;;;;;;763867;182;908110;-64
2021/11/23 01:58:09;;;;;;;6.73;3.93;;;;;;;;;;757608;183;918632;-65
2021/11/23 02:00:35;;;;;;;5.43;3.33;;;;;;;;;;768347;179;918581;-64
2021/11/23 02:03:01;;;;;;;9.03;4.00;;;;;;;;;;777035;180;918476;-65
2021/11/23 02:05:27;;;;;;;6.70;3.40;;;;;;;;;;771151;180;920243;-66
2021/11/23 02:07:52;;;;;;;4.90;3.50;;;;;;;;;;772835;180;631529;-67
2021/11/23 02:10:18;;;;;;;5.20;4.10;;;;;;;;;;777434;180;630286;-68
2021/11/23 02:12:44;;;;;;;6.50;4.23;;;;;;;;;;766682;181;620050;-68
2021/11/23 02:15:10;;;;;;;7.53;4.20;;;;;;;;;;773785;180;633110;-67
2021/11/23 02:17:36;;;;;;;9.17;3.50;;;;;;;;;;766919;179;918115;-68
2021/11/23 02:20:02;;;;;;;5.63;3.97;;;;;;;;;;770935;180;918672;-68
2021/11/23 02:22:28;;;;;;;6.97;4.13;;;;;;;;;;763301;181;918493;-69
2021/11/23 02:24:53;;;;;;;4.87;3.60;;;;;;;;;;767405;181;917872;-69
2021/11/23 02:27:19;;;;;;;9.50;4.73;;;;;;;;;;773557;181;922196;-70
2021/11/23 02:29:45;;;;;;;6.70;3.67;;;;;;;;;;769647;180;946834;-70
2021/11/23 02:32:11;;;;;;;7.10;3.73;;;;;;;;;;771421;180;918616;-70
2021/11/23 02:34:37;;;;;;;4.50;3.22;;;;;;;;;;769646;179;919635;-71
2021/11/23 02:37:03;;;;;;;5.90;3.77;;;;;;;;;;766670;181;928121;-71
2021/11/23 02:39:29;;;;;;;6.53;3.80;;;;;;;;;;768085;180;914740;-70
2021/11/23 02:41:55;;;;;;;4.20;2.90;;;;;;;;;;775953;180;916109;-70
2021/11/23 02:44:21;;;;;;;4.57;3.30;;;;;;;;;;770791;179;914851;-71
2021/11/23 02:46:47;;;;;;;4.40;3.47;;;;;;;;;;765097;181;913859;-70
2021/11/23 02:49:14;;;;;;;4.80;3.70;;;;;;;;;;769211;180;918657;-71
2021/11/23 02:51:39;;;;;;;5.23;3.73;;;;;;;;;;771700;178;1002740;-71
2021/11/23 02:54:05;;;;;;;7.07;4.43;;;;;;;;;;772184;180;918726;-70
2021/11/23 02:56:30;;;;;;;6.83;3.77;;;;;;;;;;767585;180;918298;-70
2021/11/23 02:58:56;;;;;;;4.30;3.10;;;;;;;;;;776025;180;919150;-70
2021/11/23 03:01:22;;;;;;;4.80;3.30;;;;;;;;;;768121;180;1039737;-70
2021/11/23 03:03:48;;;;;;;5.45;3.37;;;;;;;;;;771502;180;918834;-70
2021/11/23 03:06:17;;;;;;;8.33;3.53;;;;;;;;;;782085;180;917394;-71
2021/11/23 03:08:40;;;;;;;4.83;3.20;;;;;;;;;;773516;179;918728;-70
2021/11/23 03:11:05;;;;;;;4.50;3.63;;;;;;;;;;766137;180;917219;-70
2021/11/23 03:13:31;;;;;;;6.30;3.27;;;;;;;;;;768428;181;920081;-70
2021/11/23 03:15:57;;;;;;;6.33;3.50;;;;;;;;;;775636;180;918101;-70
2021/11/23 03:18:23;;;;;;;4.50;3.80;;;;;;;;;;769337;180;918327;-70
2021/11/23 03:20:50;;;;;;;5.87;3.10;;;;;;;;;;768803;180;919154;-70
2021/11/23 03:23:15;;;;;;;4.20;3.57;;;;;;;;;;774422;181;915141;-71
2021/11/23 03:25:40;;;;;;;5.83;3.20;;;;;;;;;;766527;180;918864;-70
2021/11/23 03:28:06;;;;;;;5.40;3.73;;;;;;;;;;770532;179;919259;-70
2021/11/23 03:30:32;;;;;;;4.77;3.87;;;;;;;;;;773388;180;918592;-70
2021/11/23 03:32:58;;;;;;;5.17;3.80;;;;;;;;;;767047;178;918482;-70
2021/11/23 03:35:24;;;;;;;6.95;4.28;;;;;;;;;;767210;180;1022257;-69
2021/11/23 03:37:51;;;;;;;4.40;3.30;;;;;;;;;;769365;180;919967;-69
2021/11/23 03:40:15;;;;;;;6.47;3.40;;;;;;;;;;767957;180;918162;-70
2021/11/23 03:42:41;;;;;;;6.07;3.70;;;;;;;;;;761230;180;918806;-70
2021/11/23 03:45:08;;;;;;;5.93;3.63;;;;;;;;;;765297;180;919737;-70
2021/11/23 03:47:35;;;;;;;6.20;3.50;;;;;;;;;;775184;179;918949;-70
2021/11/23 03:49:59;;;;;;;6.20;4.07;;;;;;;;;;763099;180;1543710;-70
2021/11/23 03:52:25;;;;;;;5.60;3.87;;;;;;;;;;765942;180;918951;-70
2021/11/23 03:54:51;;;;;;;6.27;3.80;;;;;;;;;;773559;180;918770;-69
2021/11/23 03:57:17;;;;;;;6.32;3.40;;;;;;;;;;770669;180;919266;-70
2021/11/23 03:59:47;;;;;;;5.40;3.70;;;;;;;;;;768533;180;919885;-70
2021/11/23 04:02:09;;;;;;;8.38;4.00;;;;;;;;;;770305;180;921327;-68
2021/11/23 04:04:35;;;;;;;6.83;4.43;;;;;;;;;;777919;178;918513;-71
2021/11/23 04:07:01;;;;;;;6.07;4.60;;;;;;;;;;767526;180;919277;-70
2021/11/23 04:09:27;;;;;;;5.72;4.43;;;;;;;;;;764902;180;917516;-70
2021/11/23 04:11:53;;;;;;;6.60;4.40;;;;;;;;;;775694;180;918997;-70
2021/11/23 04:14:18;;;;;;;5.03;4.13;;;;;;;;;;773604;177;918204;-69
2021/11/23 04:16:44;;;;;;;8.00;5.20;;;;;;;;;;770506;179;916893;-69
2021/11/23 04:19:10;;;;;;;5.97;4.53;;;;;;;;;;774809;180;918377;-69
2021/11/23 04:21:36;;;;;;;6.30;4.10;;;;;;;;;;768163;180;919071;-70
2021/11/23 04:24:02;;;;;;;6.33;4.70;;;;;;;;;;767114;180;951905;-69
2021/11/23 04:26:28;;;;;;;16.93;7.27;;;;;;;;;;772352;180;1232727;-70
2021/11/23 04:28:54;;;;;;;8.23;6.70;;;;;;;;;;770571;180;917889;-70
2021/11/23 04:31:19;;;;;;;8.03;5.60;;;;;;;;;;766829;180;920134;-70
2021/11/23 04:33:45;;;;;;;22.30;14.57;;;;;;;;;;769933;180;931925;-69
2021/11/23 04:36:11;;;;;;;9.10;5.77;;;;;;;;;;776236;180;918044;-70
2021/11/23 04:38:37;;;;;;;11.63;6.55;;;;;;;;;;765952;183;910389;-70
2021/11/23 04:41:03;;;;;;;8.37;5.20;;;;;;;;;;764678;182;919010;-70
2021/11/23 04:43:29;;;;;;;6.13;4.53;;;;;;;;;;765146;183;913282;-69
2021/11/23 04:45:56;;;;;;;7.80;4.87;;;;;;;;;;760883;182;919011;-69
2021/11/23 04:48:20;;;;;;;11.03;6.20;;;;;;;;;;759214;182;918990;-69
2021/11/23 04:50:46;;;;;;;4.90;4.10;;;;;;;;;;768159;182;917101;-70
2021/11/23 04:53:12;;;;;;;6.70;4.57;;;;;;;;;;769593;180;918473;-69
2021/11/23 04:55:38;;;;;;;7.03;5.03;;;;;;;;;;771091;180;644228;-70
2021/11/23 04:58:04;;;;;;;5.20;4.27;;;;;;;;;;771843;180;918576;-69
2021/11/23 05:00:30;;;;;;;5.90;4.33;;;;;;;;;;767619;181;919170;-69
2021/11/23 05:02:55;;;;;;;6.50;4.60;;;;;;;;;;768791;180;1132659;-69
2021/11/23 05:05:21;;;;;;;8.88;4.70;;;;;;;;;;767639;180;1020838;-69
2021/11/23 05:07:47;;;;;;;6.43;5.40;;;;;;;;;;778221;180;898892;-70
2021/11/23 05:10:13;;;;;;;5.83;4.47;;;;;;;;;;767978;180;917915;-69
2021/11/23 05:12:39;;;;;;;6.60;4.83;;;;;;;;;;770536;180;918766;-69
2021/11/23 05:15:05;;;;;;;10.30;6.23;;;;;;;;;;775472;180;918883;-69
2021/11/23 05:17:31;;;;;;;6.97;4.83;;;;;;;;;;774440;180;918521;-70
2021/11/23 05:19:57;;;;;;;13.70;11.40;;;;;;;;;;773826;180;919516;-69
2021/11/23 05:22:24;;;;;;;8.43;5.87;;;;;;;;;;773618;180;919799;-68
2021/11/23 05:24:50;;;;;;;6.40;5.20;;;;;;;;;;773027;177;918212;-69
2021/11/23 05:27:16;;;;;;;10.57;6.70;;;;;;;;;;762217;181;918418;-69
2021/11/23 05:29:42;;;;;;;8.80;6.03;;;;;;;;;;768155;181;919180;-69
2021/11/23 05:32:08;;;;;;;20.73;10.87;;;;;;;;;;775863;179;1017668;-68
2021/11/23 05:34:34;;;;;;;12.50;9.27;;;;;;;;;;769531;180;918276;-69
2021/11/23 05:37:00;;;;;;;14.53;8.20;;;;;;;;;;770549;179;918423;-68
2021/11/23 05:39:26;;;;;;;8.70;6.40;;;;;;;;;;777598;180;918147;-69
2021/11/23 05:41:52;;;;;;;10.23;6.80;;;;;;;;;;769625;180;631158;-69
2021/11/23 05:44:18;;;;;;;12.68;7.78;;;;;;;;;;769452;180;923798;-70
2021/11/23 05:46:44;;;;;;;8.27;6.15;;;;;;;;;;774863;180;922350;-68
2021/11/23 05:49:10;;;;;;;17.13;8.70;;;;;;;;;;764210;183;917433;-69
2021/11/23 05:51:36;;;;;;;10.87;7.43;;;;;;;;;;770144;179;918716;-69
2021/11/23 05:54:01;;;;;;;8.73;7.55;;;;;;;;;;769608;180;918636;-69
2021/11/23 05:56:27;;;;;;;12.17;8.50;;;;;;;;;;774931;180;917920;-69
2021/11/23 05:58:53;;;;;;;13.63;8.13;;;;;;;;;;774904;180;918717;-68
2021/11/23 06:01:19;;;;;;;14.73;10.43;;;;;;;;;;772936;180;727838;-69
2021/11/23 06:03:45;;;;;;;14.27;8.73;;;;;;;;;;770855;179;614506;-69
2021/11/23 06:06:13;;;;;;;10.73;7.43;;;;;;;;;;773991;180;918590;-69
2021/11/23 06:08:37;;;;;;;13.10;8.30;;;;;;;;;;764088;180;920508;-68
2021/11/23 06:11:03;;;;;;;14.20;9.17;;;;;;;;;;771684;180;920553;-68
2021/11/23 06:13:29;;;;;;;14.40;8.90;;;;;;;;;;768594;180;918065;-68
2021/11/23 06:15:55;;;;;;;12.27;7.90;;;;;;;;;;769439;180;918575;-69
2021/11/23 06:18:20;;;;;;;10.63;6.90;;;;;;;;;;771101;180;1021080;-69
2021/11/23 06:20:46;;;;;;;12.17;7.77;;;;;;;;;;771247;180;918706;-69
2021/11/23 06:23:13;;;;;;;11.30;8.20;;;;;;;;;;769490;180;914330;-69
2021/11/23 06:25:38;;;;;;;16.80;8.57;;;;;;;;;;771513;179;911400;-69
2021/11/23 06:28:04;;;;;;;14.10;8.87;;;;;;;;;;777940;180;912470;-69
2021/11/23 06:30:31;;;;;;;12.77;8.40;;;;;;;;;;771997;179;911229;-69
2021/11/23 06:32:56;;;;;;;11.37;7.73;;;;;;;;;;769093;180;918784;-69
2021/11/23 06:35:21;;;;;;;20.53;7.97;;;;;;;;;;778936;180;918584;-71
2021/11/23 06:37:47;;;;;;;17.93;9.20;;;;;;;;;;769389;179;919512;-68
2021/11/23 06:40:13;;;;;;;13.90;8.97;;;;;;;;;;770240;179;918800;-69
2021/11/23 06:42:39;;;;;;;12.50;8.73;;;;;;;;;;769456;180;918824;-68
2021/11/23 06:45:05;;;;;;;11.50;8.20;;;;;;;;;;775282;181;918723;-69
2021/11/23 06:47:31;;;;;;;15.80;9.80;;;;;;;;;;756895;179;2228428;-69
2021/11/23 06:49:57;;;;;;;16.30;9.00;;;;;;;;;;769434;181;918744;-68
2021/11/23 06:52:24;;;;;;;15.07;8.80;;;;;;;;;;774994;180;918689;-69
2021/11/23 06:54:49;;;;;;;14.77;9.40;;;;;;;;;;770061;180;918916;-69
2021/11/23 06:57:15;;;;;;;17.27;11.87;;;;;;;;;;772302;180;918492;-69
2021/11/23 06:59:41;;;;;;;14.20;8.90;;;;;;;;;;777442;180;918907;-68
2021/11/23 07:02:07;;;;;;;11.43;8.23;;;;;;;;;;770524;180;1020465;-69
2021/11/23 07:04:32;;;;;;;12.27;7.93;;;;;;;;;;766470;180;1227591;-68
2021/11/23 07:06:58;;;;;;;12.67;9.17;;;;;;;;;;768792;180;918144;-67
2021/11/23 07:09:24;;;;;;;15.53;8.67;;;;;;;;;;769586;182;919501;-68
2021/11/23 07:11:50;;;;;;;19.33;9.90;;;;;;;;;;769626;179;919233;-69
2021/11/23 07:14:16;;;;;;;20.30;11.23;;;;;;;;;;767160;180;919907;-69
2021/11/23 07:16:41;;;;;;;20.27;11.70;;;;;;;;;;776769;180;919433;-69
2021/11/23 07:19:07;;;;;;;16.08;10.38;;;;;;;;;;770741;180;918781;-69
2021/11/23 07:21:33;;;;;;;16.60;11.30;;;;;;;;;;770628;180;918824;-69
2021/11/23 07:23:59;;;;;;;17.67;11.10;;;;;;;;;;771152;180;919082;-69
2021/11/23 07:26:26;;;;;;;20.30;12.07;;;;;;;;;;768742;180;920229;-69
2021/11/23 07:28:51;;;;;;;27.67;15.00;;;;;;;;;;769980;180;919558;-71
2021/11/23 07:31:17;;;;;;;17.03;12.27;;;;;;;;;;767476;180;918899;-68
2021/11/23 07:33:43;;;;;;;25.83;16.07;;;;;;;;;;770456;180;919020;-67
2021/11/23 07:36:09;;;;;;;25.87;15.07;;;;;;;;;;769654;181;919567;-67
2021/11/23 07:38:35;;;;;;;42.30;21.97;;;;;;;;;;771346;179;918767;-67
2021/11/23 07:41:01;;;;;;;34.20;21.03;;;;;;;;;;775424;180;918973;-67
2021/11/23 07:43:27;;;;;;;48.07;23.93;;;;;;;;;;770896;180;918813;-67
2021/11/23 07:45:52;;;;;;;35.53;19.20;;;;;;;;;;769347;180;918753;-67
2021/11/23 07:48:18;;;;;;;36.20;21.75;;;;;;;;;;775791;180;1021629;-67
2021/11/23 07:50:44;;;;;;;36.13;19.83;;;;;;;;;;769390;180;918871;-66
2021/11/23 07:53:10;;;;;;;26.37;15.60;;;;;;;;;;768714;180;918679;-65
2021/11/23 07:55:36;;;;;;;20.57;13.67;;;;;;;;;;776644;180;918413;-66
2021/11/23 07:58:02;;;;;;;18.60;10.00;;;;;;;;;;766904;179;919053;-65
2021/11/23 08:00:28;;;;;;;11.48;8.35;;;;;;;;;;768329;180;929462;-66
2021/11/23 08:02:53;;;;;;;16.13;9.40;;;;;;;;;;769923;179;918756;-66
2021/11/23 08:05:19;;;;;;;14.07;9.07;;;;;;;;;;771615;179;919168;-65
2021/11/23 08:07:45;;;;;;;12.60;8.50;;;;;;;;;;771777;180;919564;-68
2021/11/23 08:10:11;;;;;;;15.63;9.37;;;;;;;;;;771081;180;917900;-66
2021/11/23 08:12:37;;;;;;;13.40;9.33;;;;;;;;;;774968;180;918863;-65
2021/11/23 08:15:03;;;;;;;13.87;9.23;;;;;;;;;;772056;179;919134;-63
2021/11/23 08:17:30;;;;;;;10.00;7.93;;;;;;;;;;768250;180;919052;-67
2021/11/23 08:19:54;;;;;;;10.03;7.63;;;;;;;;;;771616;180;919508;-64
2021/11/23 08:22:21;;;;;;;11.10;7.87;;;;;;;;;;764938;180;919254;-63
2021/11/23 08:24:47;;;;;;;11.50;7.90;;;;;;;;;;766310;181;919262;-64
2021/11/23 08:27:13;;;;;;;11.73;7.20;;;;;;;;;;767403;180;919880;-64
2021/11/23 08:29:39;;;;;;;12.17;7.70;;;;;;;;;;771745;181;919639;-64
2021/11/23 08:32:05;;;;;;;11.10;7.23;;;;;;;;;;765115;180;993767;-64
2021/11/23 08:34:31;;;;;;;17.27;8.60;;;;;;;;;;768900;180;919191;-64
2021/11/23 08:36:57;;;;;;;12.40;8.53;;;;;;;;;;775082;180;1021822;-64
2021/11/23 08:39:23;;;;;;;11.43;8.37;;;;;;;;;;770252;180;918780;-65
2021/11/23 08:41:49;;;;;;;13.40;8.75;;;;;;;;;;768123;180;919475;-64
2021/11/23 08:44:15;;;;;;;22.80;7.83;;;;;;;;;;772938;180;987149;-67
2021/11/23 08:46:40;;;;;;;11.07;7.40;;;;;;;;;;764974;181;919241;-64
2021/11/23 08:49:06;;;;;;;12.33;8.23;;;;;;;;;;769634;180;921248;-65
2021/11/23 08:51:36;;;;;;;14.25;8.25;;;;;;;;;;775368;179;919334;-64
2021/11/23 08:53:58;;;;;;;9.93;7.93;;;;;;;;;;775598;179;918777;-65
2021/11/23 08:56:29;;;;;;;10.53;8.20;;;;;;;;;;769492;179;926589;-65
2021/11/23 08:58:53;;;;;;;13.23;8.90;;;;;;;;;;772509;180;918721;-65
2021/11/23 09:01:16;;;;;;;15.60;9.00;;;;;;;;;;776214;180;917794;-65
2021/11/23 09:03:42;;;;;;;11.27;8.43;;;;;;;;;;772843;180;918258;-64
2021/11/23 09:06:08;;;;;;;12.73;9.10;;;;;;;;;;761870;181;1012397;-65
2021/11/23 09:08:39;;;;;;;15.90;10.63;;;;;;;;;;775713;180;921148;-64
2021/11/23 09:11:02;;;;;;;11.50;8.43;;;;;;;;;;765387;181;916402;-66
2021/11/23 09:13:28;;;;;;;13.40;10.03;;;;;;;;;;772230;177;914836;-65
2021/11/23 09:15:54;;;;;;;16.83;10.07;;;;;;;;;;771895;179;915959;-65
2021/11/23 09:18:19;;;;;;;18.87;10.97;;;;;;;;;;766176;180;914961;-64
2021/11/23 09:20:45;;;;;;;11.80;9.35;;;;;;;;;;760064;180;915140;-63
2021/11/23 09:23:11;;;;;;;16.87;11.70;;;;;;;;;;769756;179;919467;-63
2021/11/23 09:25:37;;;;;;;13.27;9.97;;;;;;;;;;770537;180;919522;-64
2021/11/23 09:28:03;;;;;;;17.50;10.13;;;;;;;;;;767653;180;921537;-65
2021/11/23 09:30:29;;;;;;;13.20;9.77;;;;;;;;;;772336;180;919114;-65
2021/11/23 09:32:55;;;;;;;12.87;9.60;;;;;;;;;;777869;176;918963;-65
2021/11/23 09:35:22;;;;;;;14.33;9.60;;;;;;;;;;772707;180;914701;-64
2021/11/23 09:37:47;;;;;;;15.57;9.90;;;;;;;;;;766157;180;914551;-65
2021/11/23 09:40:13;;;;;;;13.57;8.88;;;;;;;;;;767487;180;918553;-64
2021/11/23 09:42:39;;;;;;;14.27;10.13;;;;;;;;;;774730;180;915819;-62
2021/11/23 09:45:06;;;;;;;12.67;9.20;;;;;;;;;;768904;180;974356;-64
2021/11/23 09:47:31;;;;;;;15.17;9.83;;;;;;;;;;771489;180;915921;-63
2021/11/23 09:49:57;;;;;;;13.50;9.13;;;;;;;;;;775499;180;932475;-64
2021/11/23 09:52:23;;;;;;;12.93;8.73;;;;;;;;;;765723;180;917144;-64
2021/11/23 09:54:49;;;;;;;13.27;10.10;;;;;;;;;;768175;181;918492;-64
2021/11/23 09:57:14;;;;;;;18.63;9.10;;;;;;;;;;776636;180;922512;-64
2021/11/23 09:59:40;;;;;;;15.33;9.33;;;;;;;;;;766598;181;920102;-64
2021/11/23 10:02:06;;;;;;;12.50;8.50;;;;;;;;;;763836;180;918672;-64
2021/11/23 10:04:35;;;;;;;13.53;8.27;;;;;;;;;;774938;180;920031;-64
2021/11/23 10:06:59;;;;;;;9.57;7.80;;;;;;;;;;767175;179;917418;-65
2021/11/23 10:09:26;;;;;;;8.53;6.47;;;;;;;;;;771625;180;918654;-64
2021/11/23 10:11:52;;;;;;;12.98;7.20;;;;;;;;;;774133;179;922121;-64
2021/11/23 10:14:18;;;;;;;8.90;5.93;;;;;;;;;;774278;179;919408;-64
2021/11/23 10:16:44;;;;;;;11.67;6.57;;;;;;;;;;767599;179;923396;-64
2021/11/23 10:19:11;;;;;;;14.50;9.00;;;;;;;;;;769531;181;917913;-65
2021/11/23 10:21:35;;;;;;;8.60;6.37;;;;;;;;;;764170;181;1334576;-65
2021/11/23 10:24:01;;;;;;;13.00;7.93;;;;;;;;;;763727;181;919241;-64
2021/11/23 10:26:27;;;;;;;12.07;7.33;;;;;;;;;;774080;180;918752;-64
2021/11/23 10:28:57;;;;;;;9.48;6.47;;;;;;;;;;774733;180;919191;-63
2021/11/23 10:31:24;;;;;;;13.33;7.97;;;;;;;;;;772476;180;918234;-65
2021/11/23 10:33:55;;;;;;;9.30;7.00;;;;;;;;;;765530;181;927647;-64
2021/11/23 10:36:21;;;;;;;10.13;6.30;;;;;;;;;;769278;180;919046;-65
2021/11/23 10:38:47;;;;;;;9.57;6.77;;;;;;;;;;777849;180;918869;-65
2021/11/23 10:41:13;;;;;;;13.20;7.28;;;;;;;;;;764537;182;918736;-65
2021/11/23 10:43:39;;;;;;;12.03;6.50;;;;;;;;;;765056;180;918461;-64
2021/11/23 10:46:04;;;;;;;9.10;6.30;;;;;;;;;;770272;180;919627;-66
2021/11/23 10:48:30;;;;;;;9.63;6.30;;;;;;;;;;770626;180;918588;-63
2021/11/23 10:51:11;;;;;;;7.03;5.93;;;;;;;;;;764943;180;919037;-65
2021/11/23 10:53:37;;;;;;;10.37;6.43;;;;;;;;;;771160;180;928611;-65
2021/11/23 10:56:04;;;;;;;9.23;6.40;;;;;;;;;;767867;180;922333;-65
2021/11/23 10:58:30;;;;;;;18.27;6.90;;;;;;;;;;761606;182;2759647;-65
2021/11/23 11:00:56;;;;;;;10.90;6.70;;;;;;;;;;768979;180;919336;-65
2021/11/23 11:03:22;;;;;;;10.67;6.83;;;;;;;;;;768805;180;920368;-63
2021/11/23 11:05:48;;;;;;;9.20;7.13;;;;;;;;;;776237;180;918380;-64
2021/11/23 11:08:15;;;;;;;8.50;5.97;;;;;;;;;;770899;180;918862;-63
2021/11/23 11:10:40;;;;;;;10.90;7.97;;;;;;;;;;763992;180;918986;-63
2021/11/23 11:13:05;;;;;;;8.97;6.57;;;;;;;;;;768298;181;927237;-65
2021/11/23 11:15:33;;;;;;;6.77;5.13;;;;;;;;;;768242;180;917795;-64
2021/11/23 11:17:59;;;;;;;11.13;5.60;;;;;;;;;;766739;180;1021238;-64
2021/11/23 11:20:32;;;;;;;7.63;6.17;;;;;;;;;;767931;180;919588;-65
2021/11/23 11:22:57;;;;;;;10.43;5.93;;;;;;;;;;766546;182;919157;-63
2021/11/23 11:25:27;;;;;;;10.50;6.63;;;;;;;;;;768116;180;918674;-65
2021/11/23 11:27:50;;;;;;;10.60;6.20;;;;;;;;;;768060;180;914530;-65
2021/11/23 11:30:18;;;;;;;7.90;5.23;;;;;;;;;;769678;180;915684;-64
2021/11/23 11:32:44;;;;;;;9.53;5.73;;;;;;;;;;777700;180;943178;-65
2021/11/23 11:35:15;;;;;;;8.60;6.00;;;;;;;;;;774448;180;915558;-64
2021/11/23 11:37:41;;;;;;;8.90;6.37;;;;;;;;;;773013;180;918526;-66
2021/11/23 11:40:07;;;;;;;8.20;5.97;;;;;;;;;;770804;180;919646;-64
2021/11/23 11:42:49;;;;;;;10.13;5.80;;;;;;;;;;779897;180;920911;-65
2021/11/23 11:45:15;;;;;;;11.17;6.50;;;;;;;;;;777669;179;918559;-65
2021/11/23 11:47:42;;;;;;;9.87;6.73;;;;;;;;;;768830;180;920248;-65
2021/11/23 11:50:09;;;;;;;10.60;5.75;;;;;;;;;;767625;180;919596;-67
2021/11/23 11:52:49;;;;;;;9.57;6.00;;;;;;;;;;771929;182;918002;-65
2021/11/23 11:55:15;;;;;;;7.50;5.90;;;;;;;;;;773884;180;918079;-65
2021/11/23 11:57:42;;;;;;;7.30;5.10;;;;;;;;;;771444;180;922933;-65
2021/11/23 12:00:12;;;;;;;6.20;5.43;;;;;;;;;;769747;181;918309;-65
2021/11/23 12:02:39;;;;;;;5.78;4.00;;;;;;;;;;775567;180;1020733;-65
2021/11/23 12:05:05;;;;;;;7.00;5.30;;;;;;;;;;770938;178;1312656;-65
2021/11/23 12:07:37;;;;;;;9.43;5.63;;;;;;;;;;765557;180;919686;-65
2021/11/23 12:10:16;;;;;;;7.40;5.30;;;;;;;;;;765775;181;919573;-65
2021/11/23 12:12:43;;;;;;;7.43;5.65;;;;;;;;;;770288;180;918512;-65
2021/11/23 12:15:19;;;;;;;10.80;5.80;;;;;;;;;;774237;180;918515;-65
2021/11/23 12:18:03;;;;;;;7.57;4.67;;;;;;;;;;768371;183;919598;-65
2021/11/23 12:20:32;;;;;;;7.70;5.03;;;;;;;;;;764830;181;918971;-65
2021/11/23 12:22:58;;;;;;;7.30;4.57;;;;;;;;;;763443;179;921564;-65
2021/11/23 12:25:24;;;;;;;8.90;4.73;;;;;;;;;;772626;178;918387;-65
2021/11/23 12:27:50;;;;;;;8.67;5.30;;;;;;;;;;775478;180;918766;-64
2021/11/23 12:30:16;;;;;;;8.20;6.03;;;;;;;;;;768986;180;916861;-65
2021/11/23 12:32:42;;;;;;;8.10;4.90;;;;;;;;;;768517;180;923458;-64
2021/11/23 12:35:08;;;;;;;6.20;4.70;;;;;;;;;;768435;180;918797;-66
2021/11/23 12:37:34;;;;;;;7.20;4.40;;;;;;;;;;774675;180;920150;-65
2021/11/23 12:40:06;;;;;;;6.13;4.20;;;;;;;;;;770557;180;918704;-64
2021/11/23 12:42:32;;;;;;;7.00;4.93;;;;;;;;;;768042;180;1322907;-64
2021/11/23 12:44:57;;;;;;;11.23;4.90;;;;;;;;;;774650;180;919808;-65
2021/11/23 12:47:23;;;;;;;6.43;4.17;;;;;;;;;;770110;180;919144;-65
2021/11/23 12:49:53;;;;;;;6.53;4.77;;;;;;;;;;769559;179;1021916;-65
2021/11/23 12:52:21;;;;;;;7.23;4.57;;;;;;;;;;767789;180;918664;-65
2021/11/23 12:54:45;;;;;;;6.33;4.27;;;;;;;;;;774896;179;1021836;-65
2021/11/23 12:57:12;;;;;;;9.60;5.87;;;;;;;;;;771233;180;917856;-65
2021/11/23 12:59:38;;;;;;;8.90;5.20;;;;;;;;;;771787;180;923257;-65
2021/11/23 13:02:05;;;;;;;9.03;5.73;;;;;;;;;;777476;180;917867;-66
2021/11/23 13:04:37;;;;;;;7.20;5.13;;;;;;;;;;764869;181;918880;-65
2021/11/23 13:07:03;;;;;;;8.30;5.27;;;;;;;;;;768405;180;918963;-67
2021/11/23 13:09:29;;;;;;;10.17;5.27;;;;;;;;;;765318;180;919678;-64
2021/11/23 13:11:55;;;;;;;6.13;4.53;;;;;;;;;;776110;180;918644;-65
2021/11/23 13:14:21;;;;;;;7.00;5.10;;;;;;;;;;773125;180;918968;-64
2021/11/23 13:16:46;;;;;;;6.80;4.50;;;;;;;;;;768484;180;918744;-64
2021/11/23 13:19:12;;;;;;;8.60;4.03;;;;;;;;;;776526;177;919413;-65
2021/11/23 13:21:38;;;;;;;5.23;3.73;;;;;;;;;;769515;180;919393;-65
2021/11/23 13:24:06;;;;;;;5.87;4.00;;;;;;;;;;769785;180;918076;-65
2021/11/23 13:26:30;;;;;;;6.40;3.80;;;;;;;;;;765629;180;917845;-64
2021/11/23 13:29:01;;;;;;;4.90;3.40;;;;;;;;;;776934;180;920304;-65
2021/11/23 13:31:25;;;;;;;6.37;4.20;;;;;;;;;;765528;180;917490;-64
2021/11/23 13:33:55;;;;;;;6.53;4.10;;;;;;;;;;766663;180;1019688;-63
2021/11/23 13:36:38;;;;;;;6.77;4.77;;;;;;;;;;774361;179;626418;-64
2021/11/23 13:39:17;;;;;;;8.27;5.43;;;;;;;;;;776492;179;915699;-65
2021/11/23 13:41:43;;;;;;;6.07;4.97;;;;;;;;;;773029;180;920970;-66
2021/11/23 13:44:09;;;;;;;7.20;4.40;;;;;;;;;;764422;179;916618;-64
2021/11/23 13:46:54;;;;;;;6.23;4.57;;;;;;;;;;769814;180;915489;-64
2021/11/23 13:49:24;;;;;;;5.57;3.90;;;;;;;;;;774433;179;913620;-65
2021/11/23 13:51:55;;;;;;;8.73;3.90;;;;;;;;;;768944;179;918334;-65
2021/11/23 13:54:21;;;;;;;6.07;4.37;;;;;;;;;;773954;181;917150;-64
2021/11/23 13:56:51;;;;;;;6.37;4.33;;;;;;;;;;767088;180;918835;-65
2021/11/23 13:59:17;;;;;;;6.47;4.30;;;;;;;;;;770665;178;915998;-64
2021/11/23 14:01:54;;;;;;;6.43;4.20;;;;;;;;;;765494;180;908770;-65
2021/11/23 14:04:25;;;;;;;6.40;4.80;;;;;;;;;;775211;180;627368;-64
2021/11/23 14:06:55;;;;;;;9.70;3.70;;;;;;;;;;770001;180;919755;-65
2021/11/23 14:09:20;;;;;;;5.70;4.17;;;;;;;;;;761135;181;918527;-64
2021/11/23 14:11:52;;;;;;;7.60;4.40;;;;;;;;;;771725;180;919390;-65
2021/11/23 14:14:18;;;;;;;5.90;3.63;;;;;;;;;;766055;179;918528;-65
2021/11/23 14:16:53;;;;;;;8.60;4.73;;;;;;;;;;774082;181;922920;-65